Main page
METAR-TAF:

METAR-TAF

Airports :

Isfahan International Airport

Esfahān, Iran

latitude: 32-28N, longitude: 051-43E, elevation: 1590 m

Current weather observation

The report was made 26 minutes ago, at 03:30 UTC
Wind 4 kt from the West/Northwest
Temperature 0°C
Humidity 55%
Pressure 1025 hPa
Visibility: 6000 m

METAR: OIFM 230330Z 29004KT 6000 NSC 00/M08 Q1025 A3027

Time: 07:26 (03:56 UTC)

Forecast

The report was made 22 hours and 26 minutes ago, at 05:30 UTC
Forecast valid from 22 at 06 UTC to 23 at 12 UTC
Wind 4 kt from the West/Northwest
Visibility: 7000 m
Becoming
from 23 at 01 UTC to 23 at 03 UTC
Visibility: 4000 m
haze
Becoming
from 23 at 06 UTC to 23 at 08 UTC
Visibility: 7000 m

TAF: OIFM 220530Z 2206/2312 30004KT 7000 NSC BECMG 2301/2303 4000 HZ NSC BECMG 2306/2308 7000 NSC

Weather observations and forecasts of more than 4000 airports (METAR and TAF reports).

The available stations are represented by yellow and red dots on the map.

Hover mouse over dot to see the name of the station.

Then click to see weather observations and forecasts.

To change the map : click on the green buttons with a black cross to zoom in, on the green button with a dash to zoom out, or on the green arrows for adjacent maps.


METAR-TAF: